• Join FlightAware (Why Join?)
  • Login
  • US Flag 
09:42PM EDT


 

Airport Tracker/Info


-or-


 

Live Flight TrackerFlight Track Log ✈ XOJ549 ✈ 01-May-2013 ✈ KCRW - MBPV / PLS

Flight Track Log - Related Links

Times and Time Zones

All times are in EDT time to prevent confusion due to time zone crossing. See the XOJ549 flight status page for this flight to view local times or setup timezone preferences in your user account.

Time Position Orientation Groundspeed Altitude Reporting Facility
EDT Latitude Longitude Course Direction KTS MPH feet Rate Location/Type
01:49PM 38.3875 -81.5486 145° Southeast 191 220 2,800  Level Indianapolis Center
01:50PM 38.3261 -81.4936 145° Southeast 232 267 7,300 3,660 Climbing Indianapolis Center
01:51PM 38.2622 -81.4500 152° Southeast 258 297 10,400 2,940 Climbing Indianapolis Center
01:52PM 38.1833 -81.3950 151° Southeast 317 365 13,400 2,940 Climbing Indianapolis Center
01:53PM 38.0994 -81.3383 152° Southeast 339 390 16,500 2,700 Climbing Indianapolis Center
01:54PM 38.0111 -81.2775 152° Southeast 360 414 19,000 2,460 Climbing Indianapolis Center
01:55PM 37.9175 -81.2142 152° Southeast 377 434 21,700 2,580 Climbing Indianapolis Center
01:56PM 37.8069 -81.1411 152° Southeast 382 440 24,400 2,400 Climbing Indianapolis Center
01:57PM 37.7094 -81.0808 154° Southeast 395 455 26,700 2,040 Climbing Indianapolis Center
01:58PM 37.6100 -81.0228 155° Southeast 402 463 28,700 1,620 Climbing Indianapolis Center
01:59PM 37.5078 -80.9608 154° Southeast 417 480 30,100 1,380 Climbing Indianapolis Center
02:00PM 37.3603 -80.8717 154° Southeast 449 517 31,800 1,440 Climbing Atlanta Center
02:01PM 37.2544 -80.8161 157° South 454 522 33,200 1,560 Climbing Atlanta Center
02:02PM 37.1181 -80.7800 168° South 459 528 35,000 900 Climbing Atlanta Center
02:03PM 36.9903 -80.7594 173° South 454 522 35,000 420 Level Atlanta Center
02:04PM 36.8606 -80.7414 174° South 465 535 35,900 1,200 Climbing Atlanta Center
02:05PM 36.7494 -80.7200 171° South 465 535 37,500 1,560 Climbing Atlanta Center
02:06PM 36.6333 -80.6628 158° South 436 502 39,100 1,500 Climbing Atlanta Center
02:07PM 36.5325 -80.5611 141° Southeast 460 529 40,500 900 Climbing Atlanta Center
02:08PM 36.4394 -80.4492 136° Southeast 460 529 41,000 240 Climbing Atlanta Center
02:09PM 36.3358 -80.3222 135° Southeast 466 536 41,000  Level Atlanta Center
02:11PM 36.1767 -80.1261 135° Southeast 466 536 41,000  Level Washington Center
02:12PM 36.0722 -80.0122 139° Southeast 487 560 41,000  Level Washington Center
02:13PM 35.9642 -79.8906 138° Southeast 506 582 41,000  Level Washington Center
02:14PM 35.8475 -79.7664 139° Southeast 512 589 41,000  Level Washington Center
02:15PM 35.7508 -79.6639 139° Southeast 517 595 41,000  Level Washington Center
02:16PM 35.6319 -79.5378 139° Southeast 511 588 41,000  Level Washington Center
02:17PM 35.5250 -79.4303 141° Southeast 511 588 41,000  Level Washington Center
02:18PM 35.4281 -79.3239 138° Southeast 511 588 41,000  Level Washington Center
02:19PM 35.3169 -79.2067 139° Southeast 518 596 41,000  Level Washington Center
02:20PM 35.2075 -79.0950 140° Southeast 523 602 41,000  Level Washington Center
02:21PM 35.0983 -78.9811 140° Southeast 523 602 41,000  Level Washington Center
02:22PM 34.9867 -78.8675 140° Southeast 523 602 41,000  Level Washington Center
02:23PM 34.8769 -78.7542 140° Southeast 523 602 41,000  Level Washington Center
02:24PM 34.7614 -78.6283 138° Southeast 518 596 41,000  Level Washington Center
02:25PM 34.6494 -78.5131 140° Southeast 518 596 41,000  Level Washington Center
02:26PM 34.5539 -78.4136 139° Southeast 518 596 41,000  Level Washington Center
02:27PM 34.4436 -78.3067 141° Southeast 513 590 41,100 300 Climbing Washington Center
02:28PM 34.3614 -78.2242 140° Southeast 505 581 41,500 540 Climbing Jacksonville Center
02:29PM 34.2636 -78.1239 140° Southeast 516 594 42,000 480 Climbing Jacksonville Center
02:30PM 34.1508 -78.0122 141° Southeast 521 600 42,500 420 Climbing Jacksonville Center
02:31PM 34.0214 -77.9544 160° South 509 586 42,900 240 Climbing Jacksonville Center
02:32PM 33.8917 -77.9467 177° South 470 541 43,000  Climbing Jacksonville Center
02:33PM 33.7561 -77.9444 179° South 476 548 43,000  Level Jacksonville Center
02:34PM 33.6117 -77.9350 177° South 476 548 43,000  Level Jacksonville Center
02:35PM 33.4800 -77.9275 177° South 481 554 43,000 -60 Level Jacksonville Center
02:36PM 33.3461 -77.9200 177° South 481 554 42,900  Descending Jacksonville Center
02:37PM 33.2122 -77.9100 176° South 481 554 43,000  Climbing Jacksonville Center
02:38PM 33.0803 -77.9000 176° South 481 554 43,000  Level Jacksonville Center
02:39PM 32.9528 -77.8947 178° South 476 548 43,000  Level Jacksonville Center
02:40PM 32.8189 -77.8875 177° South 481 554 43,000  Level Jacksonville Center
02:41PM 32.6872 -77.8822 178° South 481 554 43,000  Level Jacksonville Center
02:42PM 32.5597 -77.8747 177° South 481 554 43,000  Level Jacksonville Center
02:43PM 32.4297 -77.8619 175° South 476 548 43,000  Level Jacksonville Center
02:44PM 32.3000 -77.8544 177° South 476 548 43,000  Level Jacksonville Center
02:45PM 32.1703 -77.8469 177° South 476 548 43,000  Level Jacksonville Center
02:46PM 32.0408 -77.8419 178° South 476 548 43,000  Level Jacksonville Center
02:47PM 31.9089 -77.8319 176° South 476 548 43,000  Level Jacksonville Center
02:48PM 31.7811 -77.8194 175° South 476 548 43,000  Level Jacksonville Center
02:49PM 31.6494 -77.8144 178° South 475 547 43,000  Level Jacksonville Center
02:50PM 31.5217 -77.8042 176° South 475 547 43,000  Level Jacksonville Center
02:51PM 31.3900 -77.8017 179° South 475 547 43,000  Level Jacksonville Center
02:52PM 31.2583 -77.7967 178° South 475 547 43,000  Level Jacksonville Center
02:53PM 31.1308 -77.7917 178° South 466 536 43,000  Level Jacksonville Center
02:54PM 30.9992 -77.7867 178° South 480 552 43,000 60 Level Jacksonville Center
02:55PM 30.8714 -77.7742 175° South 473 544 43,200 360 Climbing Jacksonville Center
02:56PM 30.7433 -77.7617 175° South 467 537 43,800 600 Climbing Jacksonville Center
02:57PM 30.6200 -77.7564 178° South 459 528 44,500 600 Climbing Jacksonville Center
02:58PM 30.4986 -77.7458 176° South 442 509 45,000 120 Climbing Jacksonville Center
03:00PM 30.2464 -77.7492 181° South 443 510 45,000  Level Miami Center
03:01PM 30.1256 -77.7408 177° South 433 498 45,000  Level Miami Center
03:02PM 30.0086 -77.7400 180° South 433 498 45,000  Level Miami Center
03:03PM 29.8817 -77.7294 176° South 439 505 45,000  Level Miami Center
03:04PM 29.7628 -77.7211 177° South 436 502 45,000  Level Miami Center
03:05PM 29.6397 -77.7131 177° South 436 502 45,000  Level Miami Center
03:06PM 29.5211 -77.6669 161° South 444 511 45,000  Level Miami Center
03:07PM 29.4025 -77.6064 156° South 444 511 45,000  Level Miami Center
03:08PM 29.2922 -77.5461 155° Southeast 449 517 45,000  Level Miami Center
03:09PM 29.1675 -77.4836 156° South 458 527 45,000  Level Miami Center
03:10PM 29.0550 -77.4211 154° Southeast 458 527 45,000  Level Miami Center
03:11PM 28.9406 -77.3639 156° South 458 527 45,000  Level Miami Center
03:12PM 28.8281 -77.3039 155° Southeast 458 527 45,000  Level Miami Center
03:13PM 28.7092 -77.2419 155° Southeast 453 521 45,000  Level Miami Center
03:14PM 28.5967 -77.1847 156° South 453 521 45,000  Level Miami Center
03:15PM 28.4694 -77.1161 155° Southeast 459 528 45,000  Level Miami Center
03:16PM 28.3567 -77.0592 156° South 459 528 45,000  Level Miami Center
03:17PM 28.2400 -76.9975 155° Southeast 454 522 45,000  Level Miami Center
03:18PM 28.1439 -76.9269 147° Southeast 459 528 45,000  Level Miami Center
03:19PM 28.0417 -76.8422 144° Southeast 449 517 45,000  Level Miami Center
03:20PM 27.9372 -76.7458 141° Southeast 467 537 45,000  Level Miami Center
03:21PM 27.8347 -76.6589 143° Southeast 472 543 45,000  Level Miami Center
03:22PM 27.7344 -76.5747 143° Southeast 460 529 45,000  Level Miami Center
03:23PM 27.6319 -76.4858 142° Southeast 460 529 45,000  Level Miami Center
03:24PM 27.5292 -76.3994 143° Southeast 460 529 45,000  Level Miami Center
03:25PM 27.4244 -76.3111 143° Southeast 460 529 45,000  Level Miami Center
03:26PM 27.3197 -76.2181 142° Southeast 461 531 45,000  Level Miami Center
03:27PM 27.2169 -76.1319 143° Southeast 460 529 45,000  Level Miami Center
03:28PM 27.1161 -76.0533 145° Southeast 451 519 45,000  Level Miami Center
03:29PM 27.0111 -75.9608 142° Southeast 464 534 45,000  Level Miami Center
03:30PM 26.9061 -75.8756 144° Southeast 464 534 45,000  Level Miami Center
03:31PM 26.8053 -75.7900 143° Southeast 464 534 45,000  Level Miami Center
03:32PM 26.6981 -75.7003 143° Southeast 464 534 45,000  Level Miami Center
03:33PM 26.5950 -75.6156 144° Southeast 464 534 45,000  Level Miami Center
03:34PM 26.4983 -75.5353 143° Southeast 457 526 45,000  Level Miami Center
03:35PM 26.3908 -75.4461 143° Southeast 457 526 45,000  Level Miami Center
03:36PM 26.2833 -75.3592 144° Southeast 464 534 45,000  Level Miami Center
03:37PM 26.1822 -75.2725 142° Southeast 464 534 45,000  Level Miami Center
03:38PM 26.0725 -75.1861 145° Southeast 469 540 45,000  Level Miami Center
03:39PM 25.9586 -75.0928 144° Southeast 469 540 45,000  Level Miami Center
03:40PM 25.8531 -75.0092 145° Southeast 463 533 45,000  Level Miami Center
03:41PM 25.7517 -74.9231 143° Southeast 471 542 45,000  Level Miami Center
03:42PM 25.6567 -74.8461 144° Southeast 462 532 45,000  Level Miami Center
03:43PM 25.5511 -74.7603 144° Southeast 467 537 45,000  Level Miami Center
03:44PM 25.4475 -74.6769 144° Southeast 467 537 45,000  Level Miami Center
03:45PM 25.3417 -74.5892 143° Southeast 467 537 45,000  Level Miami Center
03:46PM 25.2381 -74.5086 145° Southeast 467 537 45,000  Level Miami Center
03:47PM 25.1342 -74.4256 144° Southeast 466 536 45,000  Level Miami Center
03:48PM 25.0283 -74.3383 143° Southeast 466 536 45,000  Level Miami Center
03:49PM 24.9222 -74.2556 145° Southeast 466 536 45,000  Level Miami Center
03:50PM 24.8164 -74.1686 143° Southeast 466 536 45,000  Level Miami Center
03:51PM 24.7167 -74.0908 145° Southeast 457 526 45,000  Level Miami Center
03:52PM 24.6064 -74.0042 144° Southeast 462 532 45,000  Level Miami Center
03:53PM 24.4981 -73.9175 144° Southeast 472 543 45,000  Level Miami Center
03:54PM 24.3833 -73.8269 144° Southeast 472 543 45,000 -420 Level Miami Center
03:55PM 24.2794 -73.7450 144° Southeast 472 543 44,200 -1,200 Descending Miami Center
03:56PM 24.1689 -73.6611 145° Southeast 477 549 42,600 -1,740 Descending Miami Center
03:57PM 24.0606 -73.5775 145° Southeast 477 549 40,800 -1,920 Descending Miami Center
03:58PM 23.9564 -73.4939 144° Southeast 477 549 38,800 -2,280 Descending Miami Center
03:59PM 23.8478 -73.4083 144° Southeast 477 549 36,300 -2,640 Descending Miami Center
04:00PM 23.7308 -73.3208 146° Southeast 484 557 33,600 -2,700 Descending Miami Center
04:01PM 23.6222 -73.2353 144° Southeast 484 557 31,000 -2,700 Descending Miami Center
04:02PM 23.5072 -73.1458 144° Southeast 497 572 28,300 -2,640 Descending Miami Center
04:03PM 23.3986 -73.0606 144° Southeast 491 565 25,800 -2,520 Descending Miami Center
04:04PM 23.2922 -72.9803 145° Southeast 484 557 23,300 -2,460 Descending Miami Center
04:05PM 23.1942 -72.9064 145° Southeast 459 528 20,900 -2,220 Descending Miami Center
04:07PM 23.0172 -72.7650 144° Southeast 431 496 16,800 -2,100 Descending Miami Center
04:08PM 22.9256 -72.6981 146° Southeast 411 473 14,600 -2,100 Descending Miami Center
04:09PM 22.8444 -72.6331 144° Southeast 383 441 12,700 -1,800 Descending Miami Center
04:10PM 22.7656 -72.5794 148° Southeast 361 415 11,000 -1,740 Descending Miami Center
04:11PM 22.6972 -72.5256 144° Southeast 329 379 9,300 -1,620 Descending Miami Center
04:12PM 22.6350 -72.4692 140° Southeast 309 356 7,800 -1,320 Descending Miami Center
04:13PM 22.5614 -72.4469 164° South 283 326 6,700 -1,440 Descending Miami Center
04:14PM 22.4842 -72.4472 180° South 268 308 5,000 -1,740 Descending Miami Center
04:16PM 22.2786 -72.3874 165° South  Level FlightAware Approximate
04:23PM 21.7667 -72.2667 169° South  Level FlightAware Approximate
04:24PM 21.7736 -72.2659 169° South  Level Estimated
04:25PM 21.7667 -72.2667 169° South  Level FlightAware Approximate
04:26PM 21.7736 -72.2659 169° South  Level Estimated
04:27PM 21.7667 -72.2667 169° South  Level FlightAware Approximate
04:28PM 21.7736 -72.2659 169° South  Level Estimated
04:29PM 21.7667 -72.2667 169° South  Level FlightAware Approximate
04:30PM 21.7736 -72.2659 169° South  Level Estimated
04:31PM 21.7667 -72.2667 169° South  Level FlightAware Approximate
04:32PM 21.7736 -72.2659 169° South  Level Estimated
04:33PM 21.7667 -72.2667 169° South  Level FlightAware Approximate
04:34PM 21.7736 -72.2659 169° South  Level Estimated
04:35PM 21.7667 -72.2667 169° South  Level FlightAware Approximate